ESST/TYF METAR and TAF weather

Enter ICAO airport designator
Station Type Date Time Source
ESST METAR 2022/05/26 05:20 UTC NOAA

ESST 260520Z AUTO 15007KT 9999 BKN016/// OVC026/// 10/08 Q1000


Station Type Date Time Source
ESST Decoded METAR 2022/05/26 05:20 UTC NOAA

Station name not available
May 26, 2022 - 01:20 AM EDT / 2022.05.26 0520 UTC
Wind: from the SSE (150 degrees) at 8 MPH (7 KT):0
Visibility: greater than 7 mile(s):0
Sky conditions: overcast
Temperature: 50 F (10 C)
Dew Point: 46 F (8 C)
Relative Humidity: 87%
Pressure (altimeter): 29.53 in. Hg (1000 hPa)
ob: ESST 260520Z AUTO 15007KT 9999 BKN016/// OVC026/// 10/08 Q1000
cycle: 5

Station Type Date Time Source
ESST TAF UTC NOAA

Error!

Example: see airport list